Mountain Home, ID

07:10:MDT den 18. april 2015 (GMT -0600)
Mountain Home Air Force Base | | Change Station
CLOSE
Current Station
Flyplass
Location: Mountain Home,
Høyde over havet: 2995 ft
Nearby Weather Stations

H.o.h 2995 ft 43.04 °N, 115.87 °W | Updated 12 minutes ago

Klart
Klart
47 °F
Feels Like 47 °F
N
21
Vind Variabel Vind from NV

I dag
High -- | Low -- °F
--% Chance of Precip.
I går
High -- | Low -- °F
Precip. -- tommer
6:56 AM 8:28 PM
Minkende sigd, 0% visible
Lufttrykk 30.02 tommer
Sikt 10.0 eng. mil
Skyet Klart
Duggpunkt 30 °F
Fuktighet 52%
Regn 0.00 tommer
Snødybde Not available.
UV 0 av 12
Pollen 11.00 av 12
Luftkvalitet Not available.
Flu Activity Sporadic
METAR KMUO 181258Z AUTO 31018KT 10SM CLR 08/M01 A3005 RMK AO2 SLP166 T00831011 $

More Conditions Fewer Conditions

Lufttrykk 30.02 tommer
Sikt 10.0 eng. mil
Skyet Klart
Duggpunkt 30 °F
Fuktighet 52%
Regn 0.00 tommer
Snødybde Not available.
UV 0 av 12
Pollen 11.00 av 12
Luftkvalitet Not available.
Flu Activity Sporadic
METAR KMUO 181258Z AUTO 31018KT 10SM CLR 08/M01 A3005 RMK AO2 SLP166 T00831011 $

More Conditions Fewer Conditions

10-Day Weather Forecast

Almanac

Astronomi

Apr. 18, 2015 Oppgang Nedgang
Virkelig tid
Tussmørke
Nautisk skumring
Astronomisk skumring
Månen
Lengde av synlig lys
Dagens lengde
Tomorrow will be .
, % of the Moon is Illuminated

Dagens maks og min

State Highs State Lows

Community

WunderPhotos

Upload Photos

1,814,383 photos uploaded!

WunderBlogs® & News

Nearby

Luftkvalitet

  Luftkvalitet AQ Indeks Forurensing
Not available.

Snødybde

Stasjon Depth Høyde over havet

Earthquake Activity

By Distance Mag. Time & Date
Minimum magnitude displayed is 2.5.

Coastal Water Temperatures

Sted Temperatur

Stations

Nearby Weather Stations

Stasjonens lokasjon Temp. Nedkjølingseffekt Duggpunkt Fuktighet Vind Precip. H.o.h Oppdatert Type